createdAt,value
2022-08-17T00:00:01.257Z,15.60
2022-08-17T00:05:36.990Z,14.30
2022-08-17T00:10:44.534Z,13.10
2022-08-17T00:16:21.704Z,14.00
2022-08-17T00:22:32.677Z,15.00
2022-08-17T00:27:44.407Z,16.20
2022-08-17T00:33:14.716Z,15.90
2022-08-17T00:38:29.640Z,15.50
2022-08-17T00:43:54.310Z,11.20
2022-08-17T00:49:20.028Z,14.00
2022-08-17T00:55:01.209Z,12.90
2022-08-17T01:02:02.092Z,14.20
2022-08-17T01:07:37.970Z,14.20
2022-08-17T01:13:41.083Z,13.50
2022-08-17T01:19:27.195Z,11.10
2022-08-17T01:25:02.933Z,12.60
2022-08-17T01:31:01.099Z,13.90
2022-08-17T01:36:34.186Z,15.60
2022-08-17T01:42:44.054Z,11.40
2022-08-17T01:48:48.593Z,11.30
2022-08-17T01:54:37.968Z,13.70
2022-08-17T02:00:48.322Z,14.20
2022-08-17T02:06:53.186Z,14.40
2022-08-17T02:12:47.940Z,14.40
2022-08-17T02:19:11.472Z,12.00
2022-08-17T02:25:28.790Z,13.90
2022-08-17T02:31:33.154Z,14.60
2022-08-17T02:37:36.109Z,16.00
2022-08-17T02:44:53.141Z,13.80
2022-08-17T02:51:40.907Z,18.70
2022-08-17T02:57:56.411Z,15.90
2022-08-17T03:04:08.646Z,15.60
2022-08-17T03:10:35.101Z,17.80
2022-08-17T03:17:38.953Z,18.40
2022-08-17T03:24:08.720Z,16.40
2022-08-17T03:30:27.144Z,18.80
2022-08-17T03:37:37.209Z,18.00
2022-08-17T03:44:09.486Z,15.80
2022-08-17T03:50:18.594Z,16.10
2022-08-17T03:57:02.907Z,15.00
2022-08-17T04:03:26.712Z,15.50
2022-08-17T04:10:33.883Z,15.70
2022-08-17T04:16:25.953Z,18.20
2022-08-17T04:22:31.346Z,17.10
2022-08-17T04:27:50.292Z,17.70
2022-08-17T04:33:29.734Z,16.40
2022-08-17T04:39:05.362Z,17.90
2022-08-17T04:44:37.397Z,18.40
2022-08-17T04:49:53.695Z,19.60
2022-08-17T04:55:16.148Z,19.20
2022-08-17T05:00:45.698Z,16.60
2022-08-17T05:06:22.838Z,16.70
2022-08-17T05:11:39.945Z,16.10
2022-08-17T05:17:36.169Z,18.40
2022-08-17T05:23:07.955Z,19.50
2022-08-17T05:28:34.175Z,17.80
2022-08-17T05:34:09.647Z,17.00
2022-08-17T05:39:29.473Z,19.50
2022-08-17T05:45:39.988Z,16.60
2022-08-17T05:51:34.650Z,17.40
2022-08-17T05:57:54.212Z,19.30
2022-08-17T06:09:33.782Z,18.70
2022-08-17T06:15:08.089Z,20.70
2022-08-17T06:20:14.503Z,17.40
2022-08-17T06:25:31.880Z,21.80
2022-08-17T06:31:07.751Z,16.00
2022-08-17T06:36:48.101Z,18.10
2022-08-17T06:42:54.759Z,17.40
2022-08-17T06:48:27.496Z,17.20
2022-08-17T06:53:42.140Z,15.30
2022-08-17T06:58:59.684Z,17.50
2022-08-17T07:04:35.595Z,13.30
2022-08-17T07:09:43.605Z,15.10
2022-08-17T07:15:11.345Z,15.80
2022-08-17T07:20:25.100Z,15.50
2022-08-17T07:25:32.522Z,14.30
2022-08-17T07:30:59.554Z,20.20
2022-08-17T07:36:13.230Z,13.90
2022-08-17T07:41:57.826Z,14.70
2022-08-17T07:47:24.032Z,12.70
2022-08-17T07:52:50.307Z,15.30
2022-08-17T07:58:02.164Z,13.10
2022-08-17T08:03:44.071Z,17.90
2022-08-17T08:09:40.829Z,13.10
2022-08-17T08:15:02.810Z,13.80
2022-08-17T08:20:42.480Z,14.10
2022-08-17T08:26:02.100Z,12.60
2022-08-17T08:31:46.420Z,13.00
2022-08-17T08:37:12.572Z,12.50
2022-08-17T08:42:43.072Z,12.10
2022-08-17T08:53:52.897Z,11.60
2022-08-17T08:59:30.162Z,11.20
2022-08-17T09:05:15.993Z,12.10
2022-08-17T09:10:56.926Z,10.90
2022-08-17T09:16:06.993Z,11.50
2022-08-17T09:21:48.594Z,12.30
2022-08-17T09:27:22.846Z,11.30
2022-08-17T09:33:04.289Z,9.70
2022-08-17T09:38:52.419Z,10.60
2022-08-17T09:44:23.263Z,11.00
2022-08-17T09:49:44.856Z,10.50
2022-08-17T09:54:52.688Z,11.40
2022-08-17T10:00:34.319Z,11.10
2022-08-17T10:06:08.532Z,11.40
2022-08-17T10:16:52.414Z,9.90
2022-08-17T10:22:35.364Z,10.40
2022-08-17T10:28:19.781Z,11.60
2022-08-17T10:33:29.167Z,9.60
2022-08-17T10:39:00.295Z,9.70
2022-08-17T10:44:38.282Z,10.20
2022-08-17T10:49:47.842Z,12.70
2022-08-17T10:55:09.871Z,9.60
2022-08-17T11:00:43.619Z,8.90
2022-08-17T11:06:06.997Z,9.40
2022-08-17T11:11:49.878Z,9.30
2022-08-17T11:17:41.615Z,9.10
2022-08-17T11:23:24.001Z,8.10
2022-08-17T11:28:35.415Z,9.10
2022-08-17T11:34:06.849Z,8.60
2022-08-17T11:39:47.403Z,8.50
2022-08-17T11:45:54.023Z,9.40
2022-08-17T11:51:44.924Z,9.90
2022-08-17T11:56:52.970Z,8.30
2022-08-17T12:02:20.136Z,9.20
2022-08-17T12:07:23.827Z,9.10
2022-08-17T12:12:37.175Z,8.50
2022-08-17T12:17:46.880Z,8.40
2022-08-17T12:23:18.674Z,8.70
2022-08-17T12:28:35.368Z,10.20
2022-08-17T12:33:45.397Z,8.40
2022-08-17T12:39:13.306Z,9.00
2022-08-17T12:44:24.385Z,8.60
2022-08-17T12:49:35.676Z,8.10
2022-08-17T12:55:05.436Z,8.60
2022-08-17T13:00:33.447Z,9.10
2022-08-17T13:06:06.519Z,8.80
2022-08-17T13:11:35.157Z,9.20
2022-08-17T13:16:37.882Z,8.70
2022-08-17T13:21:59.303Z,9.40
2022-08-17T13:27:08.319Z,8.90
2022-08-17T13:32:33.636Z,8.80
2022-08-17T13:37:36.739Z,9.40
2022-08-17T13:42:52.667Z,8.40
2022-08-17T13:48:32.092Z,8.70
2022-08-17T13:54:10.389Z,8.80
2022-08-17T13:59:52.917Z,8.30
2022-08-17T14:05:06.456Z,8.80
2022-08-17T14:10:20.825Z,8.10
2022-08-17T14:15:53.947Z,7.80
2022-08-17T14:20:48.504Z,7.50
2022-08-17T14:26:13.556Z,6.50
2022-08-17T14:31:19.899Z,6.80
2022-08-17T14:36:49.501Z,6.80
2022-08-17T14:42:10.401Z,7.30
2022-08-17T14:47:15.926Z,9.10
2022-08-17T14:52:21.853Z,8.60
2022-08-17T15:02:46.135Z,8.90
2022-08-17T15:08:08.427Z,7.60
2022-08-17T15:13:30.465Z,7.10
2022-08-17T15:18:49.483Z,7.20
2022-08-17T15:23:57.776Z,6.90
2022-08-17T15:29:42.153Z,7.40
2022-08-17T15:34:59.244Z,6.80
2022-08-17T15:40:06.361Z,7.20
2022-08-17T15:45:58.811Z,6.60
2022-08-17T15:51:33.358Z,7.70
2022-08-17T15:56:42.067Z,6.70
2022-08-17T16:03:13.028Z,7.40
2022-08-17T16:07:17.636Z,7.10
2022-08-17T16:12:22.026Z,6.60
2022-08-17T16:17:39.143Z,6.70
2022-08-17T16:22:46.496Z,7.30
2022-08-17T16:27:55.328Z,7.30
2022-08-17T16:33:03.928Z,7.50
2022-08-17T16:38:07.378Z,7.40
2022-08-17T16:43:18.836Z,8.30
2022-08-17T16:48:34.403Z,6.80
2022-08-17T16:53:44.398Z,7.40
2022-08-17T16:59:31.054Z,7.60
2022-08-17T17:05:06.771Z,8.00
2022-08-17T17:10:22.853Z,10.90
2022-08-17T17:16:06.512Z,8.70
2022-08-17T17:22:45.026Z,7.80
2022-08-17T17:28:46.564Z,8.40
2022-08-17T17:34:18.818Z,9.50
2022-08-17T17:39:44.789Z,8.40
2022-08-17T17:45:29.789Z,8.40
2022-08-17T17:51:58.152Z,8.80
2022-08-17T17:57:14.015Z,8.70
2022-08-17T18:02:53.383Z,8.70
2022-08-17T18:08:21.066Z,8.40
2022-08-17T18:14:00.452Z,9.60
2022-08-17T18:19:26.443Z,9.80
2022-08-17T18:24:41.361Z,21.50
2022-08-17T18:30:53.150Z,13.60
2022-08-17T18:36:44.839Z,11.70
2022-08-17T18:42:46.585Z,16.00
2022-08-17T18:48:20.086Z,13.80
2022-08-17T18:53:53.283Z,13.10
2022-08-17T18:59:41.462Z,15.00
2022-08-17T19:06:13.557Z,16.90
2022-08-17T19:11:50.270Z,14.10
2022-08-17T19:17:30.018Z,16.70
2022-08-17T19:23:53.778Z,16.70
2022-08-17T19:30:07.844Z,13.90
2022-08-17T19:36:23.126Z,14.40
2022-08-17T19:43:01.640Z,14.50
2022-08-17T19:49:49.467Z,15.90
2022-08-17T19:55:52.439Z,11.90
2022-08-17T20:01:14.046Z,12.90
2022-08-17T20:06:28.961Z,17.00
2022-08-17T20:11:44.376Z,18.70
2022-08-17T20:16:50.218Z,13.00
2022-08-17T20:22:18.439Z,13.90
2022-08-17T20:27:31.855Z,14.80
2022-08-17T20:32:58.364Z,16.30
2022-08-17T20:38:31.716Z,16.10
2022-08-17T20:43:33.661Z,17.10
2022-08-17T20:48:52.325Z,15.60
2022-08-17T20:54:29.506Z,16.40
2022-08-17T20:59:43.326Z,14.80
2022-08-17T21:04:56.995Z,15.70
2022-08-17T21:10:23.770Z,14.60
2022-08-17T21:15:48.698Z,15.20
2022-08-17T21:21:33.250Z,14.50
2022-08-17T21:27:20.404Z,15.10
2022-08-17T21:32:30.128Z,16.90
2022-08-17T21:38:13.532Z,15.00
2022-08-17T21:43:47.572Z,17.50
2022-08-17T21:49:14.341Z,17.00
2022-08-17T21:54:44.494Z,14.80
2022-08-17T22:00:26.619Z,16.60
2022-08-17T22:06:01.659Z,20.90
2022-08-17T22:12:07.621Z,19.30
2022-08-17T22:17:58.956Z,17.20
2022-08-17T22:24:05.670Z,16.80
2022-08-17T22:30:11.869Z,18.40
2022-08-17T22:36:18.544Z,20.00
2022-08-17T22:42:12.700Z,20.60
2022-08-17T22:47:39.614Z,17.80
2022-08-17T22:54:00.124Z,18.80
2022-08-17T23:00:01.139Z,17.70
2022-08-17T23:07:03.864Z,18.60
2022-08-17T23:12:29.678Z,17.10
2022-08-17T23:18:17.939Z,18.30
2022-08-17T23:24:10.186Z,18.80
2022-08-17T23:30:55.243Z,15.90
2022-08-17T23:37:04.379Z,17.90
2022-08-17T23:43:28.424Z,17.30
2022-08-17T23:48:48.380Z,19.80
2022-08-17T23:54:21.415Z,21.70
